createdAt,value
2023-04-15T00:02:18.725Z,13.37
2023-04-15T00:04:47.780Z,11.97
2023-04-15T00:07:16.182Z,3.40
2023-04-15T00:09:44.728Z,6.13
2023-04-15T00:12:13.168Z,5.90
2023-04-15T00:14:40.747Z,8.43
2023-04-15T00:17:08.498Z,8.43
2023-04-15T00:19:36.790Z,8.63
2023-04-15T00:22:04.303Z,7.30
2023-04-15T00:24:32.693Z,6.77
2023-04-15T00:27:00.300Z,11.00
2023-04-15T00:29:31.536Z,14.23
2023-04-15T00:31:59.266Z,13.57
2023-04-15T00:34:27.859Z,12.03
2023-04-15T00:36:55.373Z,8.80
2023-04-15T00:39:23.131Z,12.63
2023-04-15T00:41:50.678Z,11.40
2023-04-15T00:44:18.922Z,11.50
2023-04-15T00:46:48.615Z,6.37
2023-04-15T00:49:17.524Z,7.93
2023-04-15T00:51:46.067Z,8.80
2023-04-15T00:54:14.020Z,5.73
2023-04-15T00:56:42.709Z,19.90
2023-04-15T00:59:10.642Z,26.87
2023-04-15T01:01:38.505Z,25.00
2023-04-15T01:04:06.937Z,22.53
2023-04-15T01:06:34.658Z,29.00
2023-04-15T01:09:03.293Z,16.53
2023-04-15T01:11:34.274Z,18.03
2023-04-15T01:14:02.640Z,8.83
2023-04-15T01:16:30.262Z,10.43
2023-04-15T01:18:58.104Z,7.37
2023-04-15T01:21:26.586Z,5.47
2023-04-15T01:23:56.915Z,6.73
2023-04-15T01:26:24.895Z,9.77
2023-04-15T01:28:52.421Z,8.80
2023-04-15T01:31:22.069Z,5.97
2023-04-15T01:33:49.650Z,6.93
2023-04-15T01:36:17.247Z,7.23
2023-04-15T01:38:44.778Z,5.27
2023-04-15T01:41:14.349Z,4.63
2023-04-15T01:43:42.372Z,6.87
2023-04-15T01:46:10.330Z,5.37
2023-04-15T01:48:37.849Z,7.87
2023-04-15T01:51:05.633Z,5.67
2023-04-15T01:53:34.183Z,6.23
2023-04-15T01:56:03.239Z,6.77
2023-04-15T01:58:31.305Z,6.63
2023-04-15T02:00:58.833Z,3.87
2023-04-15T02:03:26.521Z,5.60
2023-04-15T02:05:54.180Z,6.37
2023-04-15T02:08:22.449Z,4.40
2023-04-15T02:10:50.002Z,4.80
2023-04-15T02:13:17.536Z,3.93
2023-04-15T02:15:52.392Z,6.20
2023-04-15T02:18:20.558Z,5.53
2023-04-15T02:20:48.717Z,3.47
2023-04-15T02:23:16.780Z,4.10
2023-04-15T02:25:53.346Z,4.97
2023-04-15T02:28:22.514Z,5.27
2023-04-15T02:30:53.658Z,4.07
2023-04-15T02:33:21.811Z,4.77
2023-04-15T02:35:49.348Z,3.97
2023-04-15T02:38:17.896Z,3.03
2023-04-15T02:40:45.474Z,5.30
2023-04-15T02:43:13.625Z,7.80
2023-04-15T02:45:41.235Z,4.87
2023-04-15T02:48:09.132Z,4.43
2023-04-15T02:50:39.850Z,4.40
2023-04-15T02:53:08.304Z,5.83
2023-04-15T02:55:35.801Z,4.97
2023-04-15T02:58:03.529Z,5.47
2023-04-15T03:00:31.597Z,4.87
2023-04-15T03:03:06.719Z,4.07
2023-04-15T03:05:35.677Z,3.13
2023-04-15T03:08:05.229Z,5.03
2023-04-15T03:10:32.858Z,6.13
2023-04-15T03:13:02.467Z,6.27
2023-04-15T03:15:30.060Z,4.97
2023-04-15T03:17:57.746Z,5.07
2023-04-15T03:20:25.373Z,3.90
2023-04-15T03:22:53.049Z,4.73
2023-04-15T03:25:22.781Z,5.00
2023-04-15T03:27:50.287Z,4.20
2023-04-15T03:30:18.658Z,7.20
2023-04-15T03:32:46.642Z,4.37
2023-04-15T03:35:14.187Z,5.13
2023-04-15T03:37:41.987Z,6.03
2023-04-15T03:40:10.028Z,8.70
2023-04-15T03:42:37.585Z,4.83
2023-04-15T03:45:05.915Z,5.57
2023-04-15T03:47:33.601Z,5.57
2023-04-15T03:50:01.134Z,9.77
2023-04-15T03:52:28.618Z,12.20
2023-04-15T03:54:56.196Z,9.47
2023-04-15T03:57:24.013Z,5.70
2023-04-15T03:59:51.602Z,6.10
2023-04-15T04:02:19.260Z,5.83
2023-04-15T04:04:46.995Z,9.10
2023-04-15T04:07:18.344Z,5.70
2023-04-15T04:09:47.334Z,5.47
2023-04-15T04:12:15.541Z,4.23
2023-04-15T04:14:43.244Z,5.80
2023-04-15T04:17:10.991Z,4.50
2023-04-15T04:19:39.632Z,5.17
2023-04-15T04:22:07.184Z,5.33
2023-04-15T04:24:34.991Z,9.03
2023-04-15T04:27:03.260Z,6.93
2023-04-15T04:29:30.849Z,8.20
2023-04-15T04:31:58.317Z,8.07
2023-04-15T04:34:25.849Z,6.03
2023-04-15T04:36:53.408Z,8.17
2023-04-15T04:39:21.100Z,9.47
2023-04-15T04:41:48.833Z,7.77
2023-04-15T04:44:16.372Z,7.60
2023-04-15T04:46:44.403Z,10.17
2023-04-15T04:49:11.896Z,8.50
2023-04-15T04:51:39.467Z,8.37
2023-04-15T04:54:07.560Z,6.70
2023-04-15T04:56:35.047Z,8.60
2023-04-15T04:59:02.759Z,6.47
2023-04-15T05:01:34.117Z,5.37
2023-04-15T05:04:13.051Z,6.93
2023-04-15T05:06:40.705Z,7.50
2023-04-15T05:09:08.218Z,8.30
2023-04-15T05:11:35.929Z,5.67
2023-04-15T05:14:03.461Z,7.03
2023-04-15T05:16:30.932Z,9.77
2023-04-15T05:18:58.492Z,8.23
2023-04-15T05:21:26.190Z,8.43
2023-04-15T05:23:53.716Z,7.03
2023-04-15T05:26:22.023Z,7.77
2023-04-15T05:28:50.162Z,9.80
2023-04-15T05:31:17.755Z,10.03
2023-04-15T05:33:45.522Z,13.80
2023-04-15T05:36:13.285Z,15.03
2023-04-15T05:38:41.189Z,25.20
2023-04-15T05:41:09.103Z,22.13
2023-04-15T05:43:36.640Z,14.97
2023-04-15T05:46:04.225Z,7.33
2023-04-15T05:48:31.839Z,7.40
2023-04-15T05:50:59.338Z,6.37
2023-04-15T05:53:26.847Z,6.73
2023-04-15T05:55:54.304Z,6.87
2023-04-15T05:58:21.842Z,7.27
2023-04-15T06:00:49.382Z,6.87
2023-04-15T06:03:17.128Z,5.20
2023-04-15T06:05:44.959Z,5.17
2023-04-15T06:08:12.539Z,7.70
2023-04-15T06:10:40.209Z,8.07
2023-04-15T06:13:08.147Z,7.17
2023-04-15T06:15:35.941Z,3.63
2023-04-15T06:18:03.436Z,3.87
2023-04-15T06:20:31.024Z,4.73
2023-04-15T06:22:58.531Z,4.50
2023-04-15T06:25:26.128Z,3.80
2023-04-15T06:27:53.662Z,4.20
2023-04-15T06:30:22.942Z,5.87
2023-04-15T06:32:51.860Z,4.50
2023-04-15T06:35:19.438Z,3.87
2023-04-15T06:37:46.916Z,5.90
2023-04-15T06:40:14.567Z,5.40
2023-04-15T06:42:42.119Z,5.60
2023-04-15T06:45:10.361Z,5.10
2023-04-15T06:47:37.932Z,8.67
2023-04-15T06:50:06.571Z,5.47
2023-04-15T06:52:34.042Z,4.10
2023-04-15T06:55:02.663Z,7.70
2023-04-15T06:57:30.400Z,3.40
2023-04-15T06:59:57.880Z,4.70
2023-04-15T07:02:25.886Z,6.63
2023-04-15T07:04:53.507Z,6.90
2023-04-15T07:07:21.203Z,8.70
2023-04-15T07:09:48.723Z,6.30
2023-04-15T07:12:16.209Z,3.83
2023-04-15T07:14:43.755Z,3.87
2023-04-15T07:17:12.171Z,4.17
2023-04-15T07:19:39.709Z,5.60
2023-04-15T07:22:07.740Z,11.87
2023-04-15T07:24:35.514Z,5.20
2023-04-15T07:27:04.073Z,6.43
2023-04-15T07:29:31.623Z,5.43
2023-04-15T07:31:59.189Z,5.77
2023-04-15T07:34:26.720Z,6.60
2023-04-15T07:36:54.211Z,7.70
2023-04-15T07:39:22.264Z,8.07
2023-04-15T07:41:49.778Z,5.23
2023-04-15T07:44:17.299Z,7.27
2023-04-15T07:46:44.777Z,6.07
2023-04-15T07:49:13.356Z,5.57
2023-04-15T07:51:41.071Z,4.83
2023-04-15T07:54:08.875Z,3.20
2023-04-15T07:56:36.378Z,4.50
2023-04-15T07:59:04.764Z,4.07
2023-04-15T08:01:35.887Z,6.37
2023-04-15T08:04:03.773Z,3.50
2023-04-15T08:06:31.427Z,3.93
2023-04-15T08:08:58.961Z,5.07
2023-04-15T08:11:27.657Z,7.00
2023-04-15T08:13:55.344Z,2.83
2023-04-15T08:16:25.443Z,4.87
2023-04-15T08:18:55.048Z,4.80
2023-04-15T08:21:22.782Z,3.37
2023-04-15T08:23:52.810Z,5.13
2023-04-15T08:26:21.317Z,5.57
2023-04-15T08:28:49.592Z,5.00
2023-04-15T08:31:19.086Z,4.93
2023-04-15T08:33:46.956Z,4.50
2023-04-15T08:36:14.887Z,4.47
2023-04-15T08:38:42.402Z,4.30
2023-04-15T08:41:21.330Z,4.03
2023-04-15T08:44:04.104Z,6.27
2023-04-15T08:46:37.795Z,4.07
2023-04-15T08:49:07.066Z,8.52
2023-04-15T08:51:34.754Z,3.70
2023-04-15T08:54:03.897Z,4.40
2023-04-15T08:56:34.680Z,3.63
2023-04-15T08:59:02.823Z,4.73
2023-04-15T09:01:31.578Z,4.80
2023-04-15T09:04:00.030Z,7.63
2023-04-15T09:06:27.601Z,8.50
2023-04-15T09:08:55.322Z,6.07
2023-04-15T09:11:23.121Z,4.35
2023-04-15T09:13:51.522Z,3.70
2023-04-15T09:16:19.557Z,4.07
2023-04-15T09:18:47.104Z,5.22
2023-04-15T09:21:17.326Z,4.88
2023-04-15T09:24:00.518Z,4.45
2023-04-15T09:26:40.351Z,3.97
2023-04-15T09:29:13.463Z,6.45
2023-04-15T09:31:42.567Z,4.50
2023-04-15T09:34:10.414Z,6.10
2023-04-15T09:36:52.855Z,5.53
2023-04-15T09:39:21.360Z,4.70
2023-04-15T09:42:06.682Z,5.00
2023-04-15T09:44:34.228Z,5.15
2023-04-15T09:47:02.118Z,4.85
2023-04-15T09:49:29.838Z,5.68
2023-04-15T09:52:06.129Z,5.05
2023-04-15T09:54:38.875Z,6.22
2023-04-15T09:57:10.620Z,4.18
2023-04-15T09:59:38.391Z,5.43
2023-04-15T10:02:07.465Z,6.20
2023-04-15T10:04:38.615Z,7.60
2023-04-15T10:07:07.892Z,7.10
2023-04-15T10:09:38.026Z,8.40
2023-04-15T10:12:05.891Z,6.15
2023-04-15T10:14:38.470Z,6.15
2023-04-15T10:17:07.717Z,6.30
2023-04-15T10:19:37.740Z,5.97
2023-04-15T10:22:06.468Z,6.85
2023-04-15T10:24:34.687Z,6.05
2023-04-15T10:27:04.581Z,4.75
2023-04-15T10:29:32.957Z,4.97
2023-04-15T10:32:01.666Z,6.35
2023-04-15T10:34:29.859Z,6.32
2023-04-15T10:37:03.412Z,4.63
2023-04-15T10:39:34.166Z,5.03
2023-04-15T10:42:20.102Z,5.85
2023-04-15T10:44:56.419Z,5.43
2023-04-15T10:47:24.085Z,5.82
2023-04-15T10:50:02.294Z,3.78
2023-04-15T10:52:29.983Z,3.22
2023-04-15T10:55:21.795Z,4.68
2023-04-15T10:58:01.415Z,7.45
2023-04-15T11:00:31.989Z,7.38
2023-04-15T11:03:08.954Z,6.25
2023-04-15T11:05:42.490Z,5.20
2023-04-15T11:08:12.595Z,6.13
2023-04-15T11:10:39.957Z,5.43
2023-04-15T11:13:18.024Z,4.45
2023-04-15T11:15:47.778Z,6.90
2023-04-15T11:18:28.500Z,5.10
2023-04-15T11:20:59.484Z,8.02
2023-04-15T11:23:37.331Z,4.85
2023-04-15T11:26:12.317Z,4.03
2023-04-15T11:28:45.906Z,4.93
2023-04-15T11:31:19.880Z,4.97
2023-04-15T11:34:19.144Z,5.53
2023-04-15T11:36:47.380Z,4.28
2023-04-15T11:39:15.170Z,4.78
2023-04-15T11:41:45.896Z,5.85
2023-04-15T11:44:18.356Z,6.35
2023-04-15T11:46:46.060Z,9.15
2023-04-15T11:49:31.231Z,6.95
2023-04-15T11:51:58.793Z,5.00
2023-04-15T11:54:26.491Z,5.68
2023-04-15T11:56:54.603Z,4.32
2023-04-15T11:59:22.312Z,6.95
2023-04-15T12:01:52.317Z,6.40
2023-04-15T12:04:25.195Z,7.47
2023-04-15T12:06:53.255Z,5.38
2023-04-15T12:09:21.643Z,5.40
2023-04-15T12:11:57.246Z,6.28
2023-04-15T12:14:32.502Z,5.55
2023-04-15T12:17:02.879Z,4.53
2023-04-15T12:19:34.958Z,7.70
2023-04-15T12:22:07.196Z,3.83
2023-04-15T12:24:36.962Z,4.20
2023-04-15T12:27:07.254Z,4.03
2023-04-15T12:29:37.038Z,6.57
2023-04-15T12:32:10.418Z,3.72
2023-04-15T12:34:52.311Z,4.18
2023-04-15T12:37:20.160Z,6.55
2023-04-15T12:39:50.070Z,4.45
2023-04-15T12:42:18.799Z,6.07
2023-04-15T12:44:46.882Z,3.70
2023-04-15T12:47:14.570Z,4.93
2023-04-15T12:49:42.176Z,5.45
2023-04-15T12:52:09.742Z,6.57
2023-04-15T12:54:37.515Z,4.32
2023-04-15T12:57:07.207Z,4.18
2023-04-15T12:59:36.085Z,3.72
2023-04-15T13:02:04.332Z,3.63
2023-04-15T13:04:32.119Z,2.38
2023-04-15T13:06:59.874Z,3.92
2023-04-15T13:09:27.393Z,5.07
2023-04-15T13:11:56.036Z,4.25
2023-04-15T13:14:23.584Z,2.30
2023-04-15T13:16:51.144Z,3.83
2023-04-15T13:19:18.650Z,3.42
2023-04-15T13:21:46.372Z,2.28
2023-04-15T13:24:13.995Z,2.63
2023-04-15T13:26:41.925Z,2.08
2023-04-15T13:29:09.838Z,3.22
2023-04-15T13:31:37.565Z,5.93
2023-04-15T13:34:05.513Z,2.63
2023-04-15T13:36:33.312Z,4.22
2023-04-15T13:39:01.057Z,4.88
2023-04-15T13:41:28.681Z,6.50
2023-04-15T13:43:56.596Z,3.58
2023-04-15T13:46:25.659Z,2.92
2023-04-15T13:48:53.591Z,3.20
2023-04-15T13:51:21.189Z,2.20
2023-04-15T13:53:48.823Z,2.13
2023-04-15T13:56:18.643Z,2.38
2023-04-15T13:58:46.205Z,2.85
2023-04-15T14:01:13.889Z,4.65
2023-04-15T14:03:41.719Z,2.90
2023-04-15T14:06:09.510Z,3.30
2023-04-15T14:08:37.288Z,2.60
2023-04-15T14:11:06.622Z,3.47
2023-04-15T14:13:34.265Z,3.63
2023-04-15T14:16:01.985Z,3.17
2023-04-15T14:18:33.440Z,4.15
2023-04-15T14:21:06.339Z,5.25
2023-04-15T14:23:34.003Z,2.23
2023-04-15T14:26:01.763Z,3.25
2023-04-15T14:28:29.759Z,3.00
2023-04-15T14:30:57.554Z,5.65
2023-04-15T14:33:25.245Z,2.88
2023-04-15T14:35:52.987Z,2.42
2023-04-15T14:38:22.428Z,4.22
2023-04-15T14:40:50.222Z,2.33
2023-04-15T14:43:17.760Z,3.40
2023-04-15T14:45:45.695Z,3.22
2023-04-15T14:48:13.753Z,3.75
2023-04-15T14:50:41.502Z,4.82
2023-04-15T14:53:09.420Z,6.15
2023-04-15T14:55:37.021Z,4.60
2023-04-15T14:58:04.697Z,2.67
2023-04-15T15:00:32.400Z,2.78
2023-04-15T15:03:00.219Z,5.30
2023-04-15T15:05:28.085Z,2.88
2023-04-15T15:07:55.690Z,5.43
2023-04-15T15:10:32.902Z,3.08
2023-04-15T15:13:11.034Z,2.15
2023-04-15T15:15:39.114Z,1.75
2023-04-15T15:18:06.883Z,3.63
2023-04-15T15:20:35.356Z,3.97
2023-04-15T15:23:03.079Z,2.85
2023-04-15T15:25:30.678Z,2.05
2023-04-15T15:27:58.376Z,2.45
2023-04-15T15:30:26.221Z,2.33
2023-04-15T15:32:53.832Z,3.30
2023-04-15T15:35:22.901Z,2.03
2023-04-15T15:37:50.458Z,5.43
2023-04-15T15:40:18.048Z,2.40
2023-04-15T15:42:47.227Z,3.38
2023-04-15T15:45:14.760Z,4.85
2023-04-15T15:47:43.107Z,3.05
2023-04-15T15:50:10.941Z,5.18
2023-04-15T15:52:38.560Z,6.38
2023-04-15T15:55:06.988Z,4.53
2023-04-15T15:57:34.471Z,5.82
2023-04-15T16:02:59.933Z,4.93
2023-04-15T16:05:20.270Z,4.07
2023-04-15T16:07:47.874Z,2.13
2023-04-15T16:10:15.950Z,2.35
2023-04-15T16:12:44.030Z,3.60
2023-04-15T16:15:12.765Z,2.83
2023-04-15T16:17:40.620Z,2.83
2023-04-15T16:20:08.762Z,2.23
2023-04-15T16:22:36.418Z,3.80
2023-04-15T16:25:04.238Z,3.80
2023-04-15T16:27:32.215Z,5.47
2023-04-15T16:29:59.773Z,3.60
2023-04-15T16:32:27.352Z,3.10
2023-04-15T16:34:55.284Z,2.85
2023-04-15T16:37:22.760Z,3.10
2023-04-15T16:39:50.386Z,4.10
2023-04-15T16:42:17.954Z,3.50
2023-04-15T16:44:45.498Z,5.27
2023-04-15T16:47:13.015Z,2.93
2023-04-15T16:49:40.500Z,2.70
2023-04-15T16:52:08.126Z,4.30
2023-04-15T16:54:40.460Z,2.90
2023-04-15T16:57:08.794Z,2.87
2023-04-15T16:59:36.318Z,4.53
2023-04-15T17:02:03.929Z,3.03
2023-04-15T17:04:31.690Z,3.80
2023-04-15T17:06:59.232Z,2.53
2023-04-15T17:09:26.972Z,2.47
2023-04-15T17:11:54.543Z,3.20
2023-04-15T17:14:22.037Z,6.70
2023-04-15T17:16:49.592Z,76.23
2023-04-15T17:19:17.099Z,117.93
2023-04-15T17:21:44.579Z,65.40
2023-04-15T17:24:12.090Z,61.00
2023-04-15T17:26:39.637Z,6.80
2023-04-15T17:29:07.294Z,14.93
2023-04-15T17:31:35.029Z,88.90
2023-04-15T17:34:09.407Z,11.60
2023-04-15T17:36:37.857Z,2.23
2023-04-15T17:39:05.585Z,2.43
2023-04-15T17:41:33.244Z,3.60
2023-04-15T17:44:00.889Z,2.33
2023-04-15T17:46:28.476Z,2.50
2023-04-15T17:48:55.999Z,3.47
2023-04-15T17:51:23.540Z,3.73
2023-04-15T17:54:07.389Z,3.35
2023-04-15T17:56:35.057Z,2.57
2023-04-15T17:59:03.358Z,3.10
2023-04-15T18:01:30.941Z,3.47
2023-04-15T18:03:58.603Z,3.13
2023-04-15T18:06:27.096Z,2.13
2023-04-15T18:08:54.719Z,4.13
2023-04-15T18:11:22.182Z,2.60
2023-04-15T18:13:49.698Z,2.20
2023-04-15T18:16:17.350Z,1.73
2023-04-15T18:18:44.930Z,3.50
2023-04-15T18:21:13.863Z,3.50
2023-04-15T18:23:41.566Z,4.07
2023-04-15T18:26:09.157Z,3.30
2023-04-15T18:28:38.610Z,4.57
2023-04-15T18:31:06.609Z,3.80
2023-04-15T18:33:35.707Z,4.73
2023-04-15T18:36:03.560Z,4.20
2023-04-15T18:38:31.649Z,4.40
2023-04-15T18:40:59.146Z,4.77
2023-04-15T18:43:26.672Z,4.10
2023-04-15T18:45:54.924Z,4.20
2023-04-15T18:48:22.617Z,5.97
2023-04-15T18:50:53.839Z,4.70
2023-04-15T18:53:21.659Z,5.67
2023-04-15T18:55:49.243Z,9.43
2023-04-15T18:58:17.150Z,13.13
2023-04-15T19:00:44.768Z,10.83
2023-04-15T19:03:12.339Z,14.00
2023-04-15T19:05:40.255Z,8.93
2023-04-15T19:08:07.776Z,7.47
2023-04-15T19:10:35.530Z,6.83
2023-04-15T19:13:04.497Z,6.17
2023-04-15T19:15:32.336Z,7.80
2023-04-15T19:17:59.878Z,7.40
2023-04-15T19:20:27.520Z,7.77
2023-04-15T19:22:55.074Z,7.33
2023-04-15T19:25:22.630Z,6.90
2023-04-15T19:27:50.237Z,6.80
2023-04-15T19:30:17.759Z,8.13
2023-04-15T19:32:45.289Z,6.77
2023-04-15T19:35:12.928Z,7.57
2023-04-15T19:37:40.609Z,7.83
2023-04-15T19:40:09.493Z,10.67
2023-04-15T19:42:36.985Z,8.10
2023-04-15T19:45:05.054Z,8.27
2023-04-15T19:47:34.154Z,12.00
2023-04-15T19:50:01.757Z,9.20
2023-04-15T19:52:29.263Z,8.70
2023-04-15T19:54:56.825Z,8.10
2023-04-15T19:57:24.362Z,7.80
2023-04-15T19:59:51.901Z,10.53
2023-04-15T20:02:19.551Z,10.10
2023-04-15T20:04:47.234Z,8.53
2023-04-15T20:07:14.819Z,7.90
2023-04-15T20:09:44.034Z,7.50
2023-04-15T20:12:51.689Z,8.83
2023-04-15T20:14:59.058Z,8.30
2023-04-15T20:17:26.567Z,8.83
2023-04-15T20:19:54.117Z,9.33
2023-04-15T20:22:21.607Z,9.67
2023-04-15T20:24:49.104Z,15.20
2023-04-15T20:27:17.048Z,10.07
2023-04-15T20:29:44.567Z,10.33
2023-04-15T20:32:12.337Z,10.53
2023-04-15T20:34:42.604Z,9.50
2023-04-15T20:37:11.924Z,9.80
2023-04-15T20:39:40.696Z,9.73
2023-04-15T20:42:10.425Z,10.70
2023-04-15T20:44:40.998Z,9.97
2023-04-15T20:47:08.717Z,8.83
2023-04-15T20:49:37.947Z,9.20
2023-04-15T20:52:07.930Z,9.33
2023-04-15T20:54:35.613Z,7.60
2023-04-15T20:57:03.199Z,9.53
2023-04-15T20:59:32.016Z,8.57
2023-04-15T21:01:59.588Z,9.17
2023-04-15T21:04:27.262Z,10.27
2023-04-15T21:06:54.769Z,10.33
2023-04-15T21:09:22.260Z,11.73
2023-04-15T21:11:59.707Z,11.57
2023-04-15T21:14:27.787Z,11.00
2023-04-15T21:16:57.515Z,10.73
2023-04-15T21:19:25.101Z,13.23
2023-04-15T21:21:52.716Z,10.90
2023-04-15T21:24:20.265Z,11.90
2023-04-15T21:26:47.907Z,11.70
2023-04-15T21:29:15.529Z,12.07
2023-04-15T21:31:43.030Z,12.83
2023-04-15T21:34:11.400Z,13.53
2023-04-15T21:36:39.088Z,12.63
2023-04-15T21:39:06.830Z,12.90
2023-04-15T21:41:36.760Z,13.37
2023-04-15T21:44:04.539Z,13.87
2023-04-15T21:46:33.281Z,14.63
2023-04-15T21:49:03.373Z,13.73
2023-04-15T21:51:31.454Z,16.23
2023-04-15T21:53:59.533Z,14.93
2023-04-15T21:56:27.187Z,13.03
2023-04-15T21:58:57.190Z,13.87
2023-04-15T22:01:26.192Z,13.23
2023-04-15T22:03:54.084Z,15.97
2023-04-15T22:06:21.833Z,17.53
2023-04-15T22:09:11.293Z,16.23
2023-04-15T22:11:37.683Z,13.23
2023-04-15T22:14:05.756Z,15.10
2023-04-15T22:16:33.349Z,13.73
2023-04-15T22:19:02.477Z,16.03
2023-04-15T22:21:29.947Z,16.13
2023-04-15T22:24:32.534Z,13.07
2023-04-15T22:26:45.105Z,16.70
2023-04-15T22:29:12.692Z,12.63
2023-04-15T22:31:40.445Z,15.70
2023-04-15T22:34:08.582Z,16.63
2023-04-15T22:36:36.077Z,15.13
2023-04-15T22:39:04.007Z,13.57
2023-04-15T22:41:31.721Z,16.03
2023-04-15T22:43:59.257Z,15.60
2023-04-15T22:46:26.745Z,13.43
2023-04-15T22:48:54.280Z,15.23
2023-04-15T22:51:23.323Z,16.70
2023-04-15T22:53:50.916Z,17.63
2023-04-15T22:56:20.993Z,27.20
2023-04-15T22:58:49.585Z,15.87
2023-04-15T23:01:17.805Z,15.17
2023-04-15T23:03:56.286Z,16.13
2023-04-15T23:06:29.462Z,17.17
2023-04-15T23:08:56.947Z,11.93
2023-04-15T23:11:24.457Z,15.63
2023-04-15T23:13:52.957Z,13.57
2023-04-15T23:16:20.538Z,12.20
2023-04-15T23:18:48.056Z,13.60
2023-04-15T23:21:15.632Z,16.67
2023-04-15T23:23:43.233Z,17.33
2023-04-15T23:26:10.701Z,17.17
2023-04-15T23:28:38.184Z,16.13
2023-04-15T23:31:06.730Z,15.73
2023-04-15T23:33:34.218Z,14.97
2023-04-15T23:36:01.866Z,16.27
2023-04-15T23:38:29.432Z,15.70
2023-04-15T23:40:56.901Z,15.07
2023-04-15T23:43:24.406Z,16.27
2023-04-15T23:45:52.016Z,16.13
2023-04-15T23:48:19.545Z,16.47
2023-04-15T23:50:47.041Z,13.83
2023-04-15T23:53:14.529Z,15.97
2023-04-15T23:55:42.014Z,14.93
2023-04-15T23:58:09.912Z,17.50
